createdAt,value
2023-03-29T00:02:19.925Z,4.00
2023-03-29T00:04:47.297Z,5.18
2023-03-29T00:07:14.546Z,6.43
2023-03-29T00:09:42.682Z,3.90
2023-03-29T00:12:11.781Z,3.92
2023-03-29T00:14:39.008Z,3.22
2023-03-29T00:17:06.614Z,3.22
2023-03-29T00:19:36.862Z,2.67
2023-03-29T00:22:06.380Z,5.20
2023-03-29T00:24:33.647Z,3.28
2023-03-29T00:27:01.245Z,3.75
2023-03-29T00:29:28.805Z,2.95
2023-03-29T00:31:56.238Z,3.70
2023-03-29T00:34:24.813Z,2.55
2023-03-29T00:36:53.232Z,4.72
2023-03-29T00:39:20.834Z,5.15
2023-03-29T00:41:50.424Z,5.47
2023-03-29T00:44:55.441Z,3.42
2023-03-29T00:47:32.800Z,5.78
2023-03-29T00:50:25.952Z,7.75
2023-03-29T00:53:15.395Z,3.55
2023-03-29T00:55:55.665Z,5.13
2023-03-29T00:58:27.033Z,4.00
2023-03-29T01:01:03.474Z,2.70
2023-03-29T01:03:38.231Z,6.47
2023-03-29T01:06:09.312Z,5.65
2023-03-29T01:08:43.576Z,5.65
2023-03-29T01:11:15.967Z,3.58
2023-03-29T01:13:57.463Z,3.88
2023-03-29T01:16:25.914Z,3.55
2023-03-29T01:18:53.196Z,5.93
2023-03-29T01:21:51.792Z,3.10
2023-03-29T01:24:33.160Z,3.28
2023-03-29T01:27:03.386Z,2.03
2023-03-29T01:30:09.300Z,6.28
2023-03-29T01:32:57.235Z,4.97
2023-03-29T01:35:48.606Z,4.43
2023-03-29T01:38:26.577Z,6.28
2023-03-29T01:40:53.780Z,2.30
2023-03-29T01:43:47.095Z,3.35
2023-03-29T01:46:19.280Z,3.83
2023-03-29T01:48:57.215Z,3.65
2023-03-29T01:51:30.475Z,3.42
2023-03-29T01:54:06.754Z,4.65
2023-03-29T01:56:42.424Z,4.68
2023-03-29T01:59:18.248Z,4.43
2023-03-29T02:01:50.553Z,4.45
2023-03-29T02:04:24.229Z,5.05
2023-03-29T02:06:54.382Z,3.25
2023-03-29T02:09:23.636Z,3.88
2023-03-29T02:11:52.065Z,2.42
2023-03-29T02:14:19.560Z,4.05
2023-03-29T02:16:49.723Z,3.72
2023-03-29T02:19:18.996Z,4.32
2023-03-29T02:21:56.121Z,2.75
2023-03-29T02:24:25.289Z,3.58
2023-03-29T02:26:52.809Z,4.20
2023-03-29T02:29:20.244Z,4.13
2023-03-29T02:31:53.709Z,4.53
2023-03-29T02:34:26.959Z,4.75
2023-03-29T02:36:59.026Z,5.53
2023-03-29T02:39:29.606Z,2.38
2023-03-29T02:41:59.113Z,3.60
2023-03-29T02:44:33.017Z,2.42
2023-03-29T02:47:34.879Z,3.17
2023-03-29T02:50:02.578Z,1.98
2023-03-29T02:52:36.362Z,3.58
2023-03-29T02:55:08.286Z,3.22
2023-03-29T02:57:38.351Z,5.38
2023-03-29T03:00:09.994Z,2.25
2023-03-29T03:02:38.100Z,4.35
2023-03-29T03:05:07.169Z,4.25
2023-03-29T03:07:34.186Z,2.38
2023-03-29T03:10:01.971Z,3.00
2023-03-29T03:12:29.681Z,2.55
2023-03-29T03:14:56.729Z,2.67
2023-03-29T03:17:24.795Z,3.58
2023-03-29T03:19:53.362Z,8.05
2023-03-29T03:22:20.702Z,2.60
2023-03-29T03:24:49.340Z,3.72
2023-03-29T03:27:18.218Z,3.03
2023-03-29T03:29:46.102Z,4.30
2023-03-29T03:32:33.653Z,3.65
2023-03-29T03:35:29.907Z,3.08
2023-03-29T03:37:57.136Z,2.47
2023-03-29T03:40:26.065Z,5.43
2023-03-29T03:42:54.283Z,3.03
2023-03-29T03:45:21.505Z,2.65
2023-03-29T03:48:01.423Z,2.95
2023-03-29T03:51:01.464Z,3.22
2023-03-29T03:53:34.019Z,3.97
2023-03-29T03:56:14.060Z,4.57
2023-03-29T03:59:07.396Z,3.92
2023-03-29T04:01:54.890Z,6.00
2023-03-29T04:04:24.932Z,3.65
2023-03-29T04:07:06.001Z,5.22
2023-03-29T04:09:40.791Z,5.03
2023-03-29T04:12:22.336Z,2.70
2023-03-29T04:14:50.343Z,4.75
2023-03-29T04:17:22.215Z,3.88
2023-03-29T04:19:58.849Z,2.35
2023-03-29T04:22:29.506Z,3.85
2023-03-29T04:24:56.686Z,4.05
2023-03-29T04:27:44.977Z,5.00
2023-03-29T04:30:23.608Z,3.13
2023-03-29T04:33:09.243Z,4.30
2023-03-29T04:35:38.879Z,2.50
2023-03-29T04:38:10.918Z,5.20
2023-03-29T04:40:39.350Z,4.40
2023-03-29T04:43:22.771Z,3.05
2023-03-29T04:46:08.059Z,4.90
2023-03-29T04:48:54.207Z,3.45
2023-03-29T04:51:31.630Z,4.90
2023-03-29T04:53:59.964Z,3.30
2023-03-29T04:56:27.682Z,6.20
2023-03-29T04:59:17.716Z,5.53
2023-03-29T05:01:45.230Z,8.90
2023-03-29T05:04:12.955Z,6.18
2023-03-29T05:06:49.909Z,2.65
2023-03-29T05:09:17.519Z,5.03
2023-03-29T05:11:50.241Z,6.23
2023-03-29T05:14:18.713Z,6.13
2023-03-29T05:16:45.863Z,5.63
2023-03-29T05:19:13.363Z,3.80
2023-03-29T05:21:45.629Z,8.65
2023-03-29T05:24:17.891Z,5.85
2023-03-29T05:26:59.684Z,5.07
2023-03-29T05:29:32.927Z,5.47
2023-03-29T05:32:16.068Z,4.78
2023-03-29T05:34:43.657Z,11.88
2023-03-29T05:37:10.747Z,5.28
2023-03-29T05:39:49.947Z,13.48
2023-03-29T05:42:22.725Z,12.23
2023-03-29T05:44:56.711Z,7.93
2023-03-29T05:47:30.345Z,6.10
2023-03-29T05:49:57.606Z,9.07
2023-03-29T05:52:25.291Z,7.00
2023-03-29T05:54:52.526Z,10.15
2023-03-29T05:57:20.671Z,6.93
2023-03-29T05:59:48.344Z,7.80
2023-03-29T06:02:17.023Z,7.15
2023-03-29T06:04:49.151Z,7.47
2023-03-29T06:07:25.616Z,6.15
2023-03-29T06:10:20.465Z,15.50
2023-03-29T06:12:53.266Z,16.77
2023-03-29T06:15:24.327Z,15.35
2023-03-29T06:17:57.473Z,11.43
2023-03-29T06:20:24.869Z,22.48
2023-03-29T06:22:57.095Z,16.50
2023-03-29T06:25:25.234Z,24.75
2023-03-29T06:27:52.875Z,19.83
2023-03-29T06:30:21.064Z,28.58
2023-03-29T06:35:44.281Z,23.02
2023-03-29T06:38:15.411Z,19.27
2023-03-29T06:41:07.319Z,22.83
2023-03-29T06:44:04.244Z,29.58
2023-03-29T06:46:37.622Z,22.83
2023-03-29T06:49:09.537Z,10.07
2023-03-29T06:52:00.187Z,8.55
2023-03-29T06:54:27.529Z,13.38
2023-03-29T06:57:03.026Z,10.05
2023-03-29T06:59:31.471Z,5.07
2023-03-29T07:02:10.307Z,6.72
2023-03-29T07:04:59.294Z,25.10
2023-03-29T07:07:53.566Z,15.90
2023-03-29T07:10:33.638Z,10.63
2023-03-29T07:13:19.093Z,20.17
2023-03-29T07:15:49.621Z,20.88
2023-03-29T07:18:22.628Z,9.07
2023-03-29T07:20:50.126Z,16.50
2023-03-29T07:23:18.133Z,13.10
2023-03-29T07:25:47.204Z,19.48
2023-03-29T07:28:14.671Z,8.55
2023-03-29T07:30:42.044Z,7.85
2023-03-29T07:33:18.921Z,12.98
2023-03-29T07:35:52.218Z,21.77
2023-03-29T07:38:19.719Z,21.52
2023-03-29T07:40:53.820Z,18.95
2023-03-29T07:43:39.956Z,12.45
2023-03-29T07:46:10.235Z,7.80
2023-03-29T07:48:39.029Z,13.30
2023-03-29T07:51:08.703Z,12.23
2023-03-29T07:53:45.166Z,10.85
2023-03-29T07:56:30.978Z,7.22
2023-03-29T07:59:21.747Z,6.80
2023-03-29T08:01:58.182Z,8.23
2023-03-29T08:04:38.933Z,5.40
2023-03-29T08:07:22.626Z,6.47
2023-03-29T08:10:22.031Z,6.88
2023-03-29T08:12:55.813Z,4.72
2023-03-29T13:59:45.080Z,17.02
2023-03-29T14:02:39.767Z,19.80
2023-03-29T14:05:11.897Z,13.88
2023-03-29T14:07:44.282Z,13.90
2023-03-29T14:10:15.218Z,10.25
2023-03-29T14:12:43.025Z,16.73
2023-03-29T14:15:20.987Z,12.82
2023-03-29T14:17:48.920Z,14.63
2023-03-29T14:20:16.806Z,7.97
2023-03-29T14:22:44.593Z,23.02
2023-03-29T14:25:18.375Z,18.65
2023-03-29T14:27:45.713Z,13.43
2023-03-29T14:30:22.048Z,17.20
2023-03-29T14:32:51.551Z,19.10
2023-03-29T14:35:18.732Z,12.52
2023-03-29T14:37:48.214Z,17.75
2023-03-29T14:40:20.448Z,17.55
2023-03-29T14:42:49.294Z,13.77
2023-03-29T14:45:21.290Z,15.88
2023-03-29T14:47:50.232Z,19.00
2023-03-29T14:50:26.340Z,19.05
2023-03-29T14:52:54.850Z,14.82
2023-03-29T14:55:24.034Z,15.00
2023-03-29T14:57:54.754Z,13.02
2023-03-29T15:00:24.787Z,9.30
2023-03-29T15:03:00.283Z,15.48
2023-03-29T15:05:48.165Z,9.18
2023-03-29T15:08:20.055Z,16.20
2023-03-29T15:10:47.288Z,22.85
2023-03-29T15:13:24.685Z,12.70
2023-03-29T15:16:01.101Z,9.88
2023-03-29T15:18:42.148Z,17.02
2023-03-29T15:21:13.954Z,10.73
2023-03-29T15:23:48.375Z,16.23
2023-03-29T15:26:20.912Z,18.52
2023-03-29T15:28:49.400Z,17.17
2023-03-29T15:31:23.658Z,18.60
2023-03-29T15:34:01.477Z,15.43
2023-03-29T15:36:28.674Z,11.23
2023-03-29T15:38:56.041Z,14.32
2023-03-29T15:41:23.405Z,21.83
2023-03-29T15:43:51.788Z,19.35
2023-03-29T15:46:19.073Z,15.73
2023-03-29T15:48:46.306Z,21.10
2023-03-29T15:51:13.781Z,13.35
2023-03-29T15:53:41.244Z,15.32
2023-03-29T15:56:11.716Z,14.77
2023-03-29T15:58:39.368Z,15.45
2023-03-29T16:01:34.069Z,14.82
2023-03-29T16:04:11.348Z,9.88
2023-03-29T16:06:38.883Z,14.32
2023-03-29T16:09:07.198Z,13.07
2023-03-29T16:11:34.730Z,19.73
2023-03-29T16:14:01.887Z,17.38
2023-03-29T16:16:29.177Z,10.07
2023-03-29T16:18:56.472Z,11.23
2023-03-29T16:21:24.566Z,16.60
2023-03-29T16:23:51.877Z,15.90
2023-03-29T16:26:19.181Z,14.10
2023-03-29T16:28:46.315Z,11.32
2023-03-29T16:31:14.067Z,13.75
2023-03-29T16:33:41.859Z,8.50
2023-03-29T16:36:09.860Z,11.38
2023-03-29T16:38:37.333Z,12.75
2023-03-29T16:41:04.834Z,16.90
2023-03-29T16:43:32.026Z,12.52
2023-03-29T16:45:59.080Z,14.27
2023-03-29T16:48:27.361Z,13.75
2023-03-29T16:50:54.494Z,8.23
2023-03-29T16:53:22.578Z,10.48
2023-03-29T16:55:49.748Z,17.02
2023-03-29T16:58:17.012Z,15.43
2023-03-29T17:00:47.841Z,13.80
2023-03-29T17:03:17.029Z,14.20
2023-03-29T17:05:52.086Z,15.68
2023-03-29T17:08:20.833Z,15.32
2023-03-29T17:10:54.068Z,12.82
2023-03-29T17:13:24.033Z,10.18
2023-03-29T17:15:52.638Z,12.95
2023-03-29T17:18:25.404Z,15.85
2023-03-29T17:20:56.778Z,8.05
2023-03-29T17:23:25.161Z,11.18
2023-03-29T17:25:55.090Z,13.15
2023-03-29T17:28:22.800Z,12.90
2023-03-29T17:30:50.085Z,8.45
2023-03-29T17:33:18.231Z,12.68
2023-03-29T17:35:46.888Z,15.38
2023-03-29T17:38:14.008Z,12.23
2023-03-29T17:40:41.365Z,14.27
2023-03-29T17:43:08.719Z,9.52
2023-03-29T17:45:35.844Z,12.90
2023-03-29T17:48:06.040Z,17.55
2023-03-29T17:50:34.132Z,14.93
2023-03-29T17:53:01.352Z,17.42
2023-03-29T17:55:28.538Z,17.52
2023-03-29T17:57:56.492Z,15.35
2023-03-29T18:00:23.862Z,10.73
2023-03-29T18:02:51.096Z,9.25
2023-03-29T18:05:18.802Z,13.43
2023-03-29T18:07:46.358Z,17.95
2023-03-29T18:10:13.417Z,13.93
2023-03-29T18:12:40.415Z,12.20
2023-03-29T18:15:08.309Z,11.32
2023-03-29T18:17:35.938Z,18.88
2023-03-29T18:20:09.547Z,9.65
2023-03-29T18:22:36.790Z,10.32
2023-03-29T18:25:05.758Z,6.90
2023-03-29T18:27:32.974Z,11.85
2023-03-29T18:30:00.264Z,5.47
2023-03-29T18:32:27.821Z,7.28
2023-03-29T18:34:54.936Z,5.45
2023-03-29T18:37:22.053Z,9.85
2023-03-29T18:39:49.342Z,10.25
2023-03-29T18:42:16.691Z,7.40
2023-03-29T18:44:43.845Z,8.45
2023-03-29T18:47:11.522Z,7.93
2023-03-29T18:49:38.597Z,8.45
2023-03-29T18:52:06.129Z,6.03
2023-03-29T18:54:33.314Z,10.10
2023-03-29T18:57:00.886Z,7.95
2023-03-29T18:59:27.997Z,11.93
2023-03-29T19:01:55.122Z,7.22
2023-03-29T19:04:23.447Z,9.38
2023-03-29T19:06:51.934Z,11.18
2023-03-29T19:09:19.088Z,8.52
2023-03-29T19:11:48.179Z,8.02
2023-03-29T19:14:16.003Z,9.45
2023-03-29T19:16:43.504Z,13.82
2023-03-29T19:19:11.002Z,6.85
2023-03-29T19:21:38.734Z,6.97
2023-03-29T19:24:07.871Z,9.35
2023-03-29T19:26:35.599Z,9.15
2023-03-29T19:29:03.558Z,8.05
2023-03-29T19:31:31.909Z,7.22
2023-03-29T19:34:00.128Z,7.47
2023-03-29T19:36:28.407Z,12.73
2023-03-29T19:38:56.212Z,10.50
2023-03-29T19:41:23.424Z,6.10
2023-03-29T19:43:50.557Z,12.40
2023-03-29T19:46:18.882Z,8.27
2023-03-29T19:48:47.077Z,7.40
2023-03-29T19:51:17.292Z,8.43
2023-03-29T19:53:44.702Z,15.60
2023-03-29T19:56:13.373Z,8.20
2023-03-29T19:58:40.999Z,8.93
2023-03-29T20:01:08.107Z,10.63
2023-03-29T20:03:36.361Z,9.80
2023-03-29T20:06:04.087Z,8.38
2023-03-29T20:08:31.504Z,9.48
2023-03-29T20:11:10.443Z,11.48
2023-03-29T20:13:39.337Z,11.57
2023-03-29T20:16:14.386Z,8.68
2023-03-29T20:18:41.678Z,8.90
2023-03-29T20:21:10.007Z,13.50
2023-03-29T20:23:37.248Z,7.95
2023-03-29T20:26:04.516Z,15.65
2023-03-29T20:28:31.777Z,8.18
2023-03-29T20:31:04.027Z,6.78
2023-03-29T20:33:31.529Z,8.55
2023-03-29T20:35:59.087Z,8.85
2023-03-29T20:38:26.452Z,14.50
2023-03-29T20:40:53.764Z,8.32
2023-03-29T20:43:21.077Z,7.47
2023-03-29T20:45:53.796Z,12.13
2023-03-29T20:50:57.938Z,8.32
2023-03-29T20:53:25.937Z,9.05
2023-03-29T20:55:53.080Z,7.05
2023-03-29T20:58:20.154Z,8.48
2023-03-29T21:00:48.592Z,14.15
2023-03-29T21:03:15.930Z,11.38
2023-03-29T21:05:43.838Z,7.22
2023-03-29T21:08:11.396Z,10.10
2023-03-29T21:10:38.573Z,10.93
2023-03-29T21:13:06.044Z,9.63
2023-03-29T21:15:33.365Z,7.75
2023-03-29T21:18:00.576Z,9.68
2023-03-29T21:20:27.772Z,10.60
2023-03-29T21:22:55.101Z,6.45
2023-03-29T21:25:22.265Z,9.25
2023-03-29T21:27:49.577Z,11.77
2023-03-29T21:30:16.788Z,9.48
2023-03-29T21:32:44.069Z,9.43
2023-03-29T21:35:11.402Z,9.38
2023-03-29T21:37:39.056Z,12.38
2023-03-29T21:40:07.176Z,10.35
2023-03-29T21:42:35.104Z,9.35
2023-03-29T21:45:02.903Z,12.00
2023-03-29T21:47:30.691Z,7.70
2023-03-29T21:49:57.862Z,11.30
2023-03-29T21:52:25.123Z,11.45
2023-03-29T21:54:52.258Z,10.23
2023-03-29T21:57:19.477Z,7.70
2023-03-29T21:59:46.603Z,8.18
2023-03-29T22:02:13.808Z,18.10
2023-03-29T22:04:41.478Z,6.85
2023-03-29T22:07:11.052Z,7.22
2023-03-29T22:09:41.480Z,7.18
2023-03-29T22:12:10.118Z,8.45
2023-03-29T22:14:37.496Z,8.60
2023-03-29T22:17:06.292Z,9.73
2023-03-29T22:19:39.886Z,7.63
2023-03-29T22:22:14.079Z,7.40
2023-03-29T22:24:42.603Z,7.28
2023-03-29T22:27:11.841Z,15.95
2023-03-29T22:29:39.099Z,5.45
2023-03-29T22:32:06.287Z,10.45
2023-03-29T22:34:33.517Z,8.52
2023-03-29T22:37:00.713Z,8.68
2023-03-29T22:39:27.750Z,6.35
2023-03-29T22:41:54.922Z,9.23
2023-03-29T22:44:22.276Z,9.90
2023-03-29T22:46:49.684Z,6.05
2023-03-29T22:49:16.810Z,11.75
2023-03-29T22:51:43.900Z,7.63
2023-03-29T22:54:11.540Z,6.85
2023-03-29T22:56:38.789Z,8.57
2023-03-29T22:59:05.907Z,6.65
2023-03-29T23:01:33.061Z,9.43
2023-03-29T23:04:00.232Z,8.48
2023-03-29T23:06:27.323Z,16.05
2023-03-29T23:08:54.299Z,9.15
2023-03-29T23:11:21.876Z,7.07
2023-03-29T23:13:49.090Z,6.57
2023-03-29T23:16:16.652Z,11.75
2023-03-29T23:18:43.689Z,10.07
2023-03-29T23:21:10.782Z,11.85
2023-03-29T23:23:38.697Z,7.03
2023-03-29T23:26:06.746Z,8.10
2023-03-29T23:28:34.857Z,10.25
2023-03-29T23:31:09.963Z,10.30
2023-03-29T23:33:42.913Z,12.30
2023-03-29T23:36:16.351Z,9.82
2023-03-29T23:38:45.718Z,10.23
2023-03-29T23:41:13.660Z,9.35
2023-03-29T23:43:43.081Z,8.60
2023-03-29T23:46:13.622Z,13.70
2023-03-29T23:48:43.629Z,15.45
2023-03-29T23:51:12.070Z,10.35
2023-03-29T23:53:39.170Z,8.95
2023-03-29T23:56:06.616Z,7.80
2023-03-29T23:58:36.988Z,6.82
